sensor_id;sensor_type;location;lat;lon;timestamp;P1;durP1;ratioP1;P2;durP2;ratioP2
2362;SDS011;64265;51.664;7.626;2024-01-25T00:00:46;2.40;;;1.70;;
2362;SDS011;64265;51.664;7.626;2024-01-25T00:03:13;3.90;;;1.80;;
2362;SDS011;64265;51.664;7.626;2024-01-25T00:05:41;4.53;;;1.87;;
2362;SDS011;64265;51.664;7.626;2024-01-25T00:08:07;2.60;;;1.60;;
2362;SDS011;64265;51.664;7.626;2024-01-25T00:10:34;2.13;;;1.47;;
2362;SDS011;64265;51.664;7.626;2024-01-25T00:13:01;3.37;;;1.83;;
2362;SDS011;64265;51.664;7.626;2024-01-25T00:15:28;2.27;;;1.57;;
2362;SDS011;64265;51.664;7.626;2024-01-25T00:17:54;1.50;;;1.30;;
2362;SDS011;64265;51.664;7.626;2024-01-25T00:20:22;4.40;;;1.60;;
2362;SDS011;64265;51.664;7.626;2024-01-25T00:22:50;2.38;;;1.38;;
2362;SDS011;64265;51.664;7.626;2024-01-25T00:25:17;2.67;;;1.50;;
2362;SDS011;64265;51.664;7.626;2024-01-25T00:27:43;1.70;;;1.30;;
2362;SDS011;64265;51.664;7.626;2024-01-25T00:30:12;2.95;;;2.05;;
2362;SDS011;64265;51.664;7.626;2024-01-25T00:32:39;3.05;;;1.58;;
2362;SDS011;64265;51.664;7.626;2024-01-25T00:35:06;2.60;;;1.37;;
2362;SDS011;64265;51.664;7.626;2024-01-25T00:37:35;2.50;;;1.42;;
2362;SDS011;64265;51.664;7.626;2024-01-25T00:40:04;2.28;;;1.52;;
2362;SDS011;64265;51.664;7.626;2024-01-25T00:42:31;2.83;;;2.10;;
2362;SDS011;64265;51.664;7.626;2024-01-25T00:45:04;2.33;;;1.63;;
2362;SDS011;64265;51.664;7.626;2024-01-25T00:47:31;1.90;;;1.70;;
2362;SDS011;64265;51.664;7.626;2024-01-25T00:49:59;2.00;;;1.50;;
2362;SDS011;64265;51.664;7.626;2024-01-25T00:52:26;3.03;;;1.55;;
2362;SDS011;64265;51.664;7.626;2024-01-25T00:54:53;2.70;;;1.73;;
2362;SDS011;64265;51.664;7.626;2024-01-25T00:57:22;2.08;;;1.20;;
2362;SDS011;64265;51.664;7.626;2024-01-25T00:59:49;6.43;;;2.00;;
2362;SDS011;64265;51.664;7.626;2024-01-25T01:02:16;2.95;;;1.63;;
2362;SDS011;64265;51.664;7.626;2024-01-25T01:04:45;4.13;;;1.50;;
2362;SDS011;64265;51.664;7.626;2024-01-25T01:07:12;2.20;;;1.65;;
2362;SDS011;64265;51.664;7.626;2024-01-25T01:09:40;2.33;;;1.48;;
2362;SDS011;64265;51.664;7.626;2024-01-25T01:12:06;2.08;;;1.17;;
2362;SDS011;64265;51.664;7.626;2024-01-25T01:14:34;2.20;;;1.50;;
2362;SDS011;64265;51.664;7.626;2024-01-25T01:17:01;2.83;;;1.60;;
2362;SDS011;64265;51.664;7.626;2024-01-25T01:19:28;3.17;;;2.15;;
2362;SDS011;64265;51.664;7.626;2024-01-25T01:21:55;2.67;;;1.17;;
2362;SDS011;64265;51.664;7.626;2024-01-25T01:24:22;1.73;;;1.25;;
2362;SDS011;64265;51.664;7.626;2024-01-25T01:26:48;1.83;;;1.50;;
2362;SDS011;64265;51.664;7.626;2024-01-25T01:29:15;2.35;;;1.27;;
2362;SDS011;64265;51.664;7.626;2024-01-25T01:31:44;1.85;;;1.58;;
2362;SDS011;64265;51.664;7.626;2024-01-25T01:34:10;2.17;;;1.60;;
2362;SDS011;64265;51.664;7.626;2024-01-25T01:36:38;2.45;;;1.60;;
2362;SDS011;64265;51.664;7.626;2024-01-25T01:39:05;2.35;;;1.65;;
2362;SDS011;64265;51.664;7.626;2024-01-25T01:41:32;1.80;;;1.50;;
2362;SDS011;64265;51.664;7.626;2024-01-25T01:43:59;2.03;;;1.60;;
2362;SDS011;64265;51.664;7.626;2024-01-25T01:46:29;3.92;;;1.63;;
2362;SDS011;64265;51.664;7.626;2024-01-25T01:49:00;4.18;;;1.40;;
2362;SDS011;64265;51.664;7.626;2024-01-25T01:51:28;2.50;;;1.45;;
2362;SDS011;64265;51.664;7.626;2024-01-25T01:53:55;1.80;;;1.27;;
2362;SDS011;64265;51.664;7.626;2024-01-25T01:56:23;2.60;;;1.75;;
2362;SDS011;64265;51.664;7.626;2024-01-25T01:58:52;1.95;;;1.42;;
2362;SDS011;64265;51.664;7.626;2024-01-25T02:01:20;2.22;;;1.48;;
2362;SDS011;64265;51.664;7.626;2024-01-25T02:03:47;1.52;;;1.40;;
2362;SDS011;64265;51.664;7.626;2024-01-25T02:06:15;2.40;;;1.33;;
2362;SDS011;64265;51.664;7.626;2024-01-25T02:08:42;2.45;;;1.65;;
2362;SDS011;64265;51.664;7.626;2024-01-25T02:11:10;2.10;;;1.27;;
2362;SDS011;64265;51.664;7.626;2024-01-25T02:13:37;2.47;;;1.30;;
2362;SDS011;64265;51.664;7.626;2024-01-25T02:16:04;2.53;;;1.50;;
2362;SDS011;64265;51.664;7.626;2024-01-25T02:18:33;2.65;;;1.70;;
2362;SDS011;64265;51.664;7.626;2024-01-25T02:21:00;2.70;;;1.50;;
2362;SDS011;64265;51.664;7.626;2024-01-25T02:23:28;2.10;;;1.50;;
2362;SDS011;64265;51.664;7.626;2024-01-25T02:25:54;2.85;;;1.63;;
2362;SDS011;64265;51.664;7.626;2024-01-25T02:28:21;2.30;;;1.50;;
2362;SDS011;64265;51.664;7.626;2024-01-25T02:30:48;2.60;;;1.40;;
2362;SDS011;64265;51.664;7.626;2024-01-25T02:33:15;2.50;;;1.50;;
2362;SDS011;64265;51.664;7.626;2024-01-25T02:35:41;1.70;;;1.30;;
2362;SDS011;64265;51.664;7.626;2024-01-25T02:38:08;2.30;;;1.45;;
2362;SDS011;64265;51.664;7.626;2024-01-25T02:40:36;1.77;;;1.30;;
2362;SDS011;64265;51.664;7.626;2024-01-25T02:43:03;3.40;;;1.98;;
2362;SDS011;64265;51.664;7.626;2024-01-25T02:45:30;4.05;;;1.95;;
2362;SDS011;64265;51.664;7.626;2024-01-25T02:47:57;3.17;;;1.70;;
2362;SDS011;64265;51.664;7.626;2024-01-25T02:50:23;4.00;;;1.60;;
2362;SDS011;64265;51.664;7.626;2024-01-25T02:52:51;2.28;;;1.88;;
2362;SDS011;64265;51.664;7.626;2024-01-25T02:55:18;2.97;;;1.60;;
2362;SDS011;64265;51.664;7.626;2024-01-25T02:57:47;2.13;;;1.45;;
2362;SDS011;64265;51.664;7.626;2024-01-25T03:00:14;2.08;;;1.55;;
2362;SDS011;64265;51.664;7.626;2024-01-25T03:02:41;2.30;;;1.70;;
2362;SDS011;64265;51.664;7.626;2024-01-25T03:05:08;2.00;;;1.70;;
2362;SDS011;64265;51.664;7.626;2024-01-25T03:07:34;4.57;;;1.65;;
2362;SDS011;64265;51.664;7.626;2024-01-25T03:10:01;1.98;;;1.20;;
2362;SDS011;64265;51.664;7.626;2024-01-25T03:12:28;2.72;;;1.60;;
2362;SDS011;64265;51.664;7.626;2024-01-25T03:14:56;2.78;;;1.67;;
2362;SDS011;64265;51.664;7.626;2024-01-25T03:17:23;2.75;;;1.80;;
2362;SDS011;64265;51.664;7.626;2024-01-25T03:19:50;1.70;;;1.15;;
2362;SDS011;64265;51.664;7.626;2024-01-25T03:22:17;2.10;;;1.90;;
2362;SDS011;64265;51.664;7.626;2024-01-25T03:24:44;2.50;;;1.50;;
2362;SDS011;64265;51.664;7.626;2024-01-25T03:27:11;2.20;;;1.17;;
2362;SDS011;64265;51.664;7.626;2024-01-25T03:29:40;3.22;;;1.40;;
2362;SDS011;64265;51.664;7.626;2024-01-25T03:32:09;2.60;;;1.50;;
2362;SDS011;64265;51.664;7.626;2024-01-25T03:34:36;1.92;;;1.25;;
2362;SDS011;64265;51.664;7.626;2024-01-25T03:37:03;3.22;;;1.55;;
2362;SDS011;64265;51.664;7.626;2024-01-25T03:39:30;2.22;;;1.42;;
2362;SDS011;64265;51.664;7.626;2024-01-25T03:41:56;2.03;;;1.15;;
2362;SDS011;64265;51.664;7.626;2024-01-25T03:44:23;2.05;;;1.30;;
2362;SDS011;64265;51.664;7.626;2024-01-25T03:46:50;1.77;;;1.55;;
2362;SDS011;64265;51.664;7.626;2024-01-25T03:49:18;2.63;;;1.73;;
2362;SDS011;64265;51.664;7.626;2024-01-25T03:51:45;1.92;;;1.50;;
2362;SDS011;64265;51.664;7.626;2024-01-25T03:54:11;3.05;;;1.70;;
2362;SDS011;64265;51.664;7.626;2024-01-25T03:56:38;1.90;;;1.58;;
2362;SDS011;64265;51.664;7.626;2024-01-25T03:59:05;2.20;;;1.55;;
2362;SDS011;64265;51.664;7.626;2024-01-25T04:01:40;2.40;;;1.20;;
2362;SDS011;64265;51.664;7.626;2024-01-25T04:04:07;1.95;;;1.10;;
2362;SDS011;64265;51.664;7.626;2024-01-25T04:06:37;3.80;;;1.70;;
2362;SDS011;64265;51.664;7.626;2024-01-25T04:09:04;2.95;;;1.40;;
2362;SDS011;64265;51.664;7.626;2024-01-25T04:11:31;3.08;;;1.52;;
2362;SDS011;64265;51.664;7.626;2024-01-25T04:13:57;2.20;;;1.60;;
2362;SDS011;64265;51.664;7.626;2024-01-25T04:16:25;3.58;;;1.67;;
2362;SDS011;64265;51.664;7.626;2024-01-25T04:18:52;2.75;;;1.35;;
2362;SDS011;64265;51.664;7.626;2024-01-25T04:21:19;2.00;;;1.05;;
2362;SDS011;64265;51.664;7.626;2024-01-25T04:23:47;2.00;;;1.50;;
2362;SDS011;64265;51.664;7.626;2024-01-25T04:26:14;1.83;;;1.45;;
2362;SDS011;64265;51.664;7.626;2024-01-25T04:28:41;2.05;;;1.27;;
2362;SDS011;64265;51.664;7.626;2024-01-25T04:31:09;2.38;;;1.50;;
2362;SDS011;64265;51.664;7.626;2024-01-25T04:33:37;1.75;;;1.50;;
2362;SDS011;64265;51.664;7.626;2024-01-25T04:36:05;2.67;;;1.50;;
2362;SDS011;64265;51.664;7.626;2024-01-25T04:38:32;2.97;;;1.80;;
2362;SDS011;64265;51.664;7.626;2024-01-25T04:41:00;2.22;;;1.38;;
2362;SDS011;64265;51.664;7.626;2024-01-25T04:43:27;1.95;;;1.27;;
2362;SDS011;64265;51.664;7.626;2024-01-25T04:45:53;1.50;;;1.30;;
2362;SDS011;64265;51.664;7.626;2024-01-25T04:48:20;1.60;;;1.15;;
2362;SDS011;64265;51.664;7.626;2024-01-25T04:50:47;2.65;;;1.42;;
2362;SDS011;64265;51.664;7.626;2024-01-25T04:53:13;1.88;;;1.13;;
2362;SDS011;64265;51.664;7.626;2024-01-25T04:55:40;2.60;;;1.70;;
2362;SDS011;64265;51.664;7.626;2024-01-25T04:58:08;2.17;;;1.60;;
2362;SDS011;64265;51.664;7.626;2024-01-25T05:00:36;1.92;;;1.40;;
2362;SDS011;64265;51.664;7.626;2024-01-25T05:03:04;2.47;;;1.67;;
2362;SDS011;64265;51.664;7.626;2024-01-25T05:05:31;2.15;;;1.40;;
2362;SDS011;64265;51.664;7.626;2024-01-25T05:07:58;2.03;;;1.83;;
2362;SDS011;64265;51.664;7.626;2024-01-25T05:10:25;3.17;;;1.73;;
2362;SDS011;64265;51.664;7.626;2024-01-25T05:12:52;3.00;;;1.27;;
2362;SDS011;64265;51.664;7.626;2024-01-25T05:15:20;3.08;;;1.48;;
2362;SDS011;64265;51.664;7.626;2024-01-25T05:17:47;1.50;;;1.13;;
2362;SDS011;64265;51.664;7.626;2024-01-25T05:20:14;2.58;;;1.33;;
2362;SDS011;64265;51.664;7.626;2024-01-25T05:22:42;2.53;;;1.35;;
2362;SDS011;64265;51.664;7.626;2024-01-25T05:25:11;2.13;;;1.60;;
2362;SDS011;64265;51.664;7.626;2024-01-25T05:27:37;2.53;;;1.75;;
2362;SDS011;64265;51.664;7.626;2024-01-25T05:30:05;1.85;;;1.27;;
2362;SDS011;64265;51.664;7.626;2024-01-25T05:32:33;2.20;;;1.58;;
2362;SDS011;64265;51.664;7.626;2024-01-25T05:35:00;2.42;;;1.30;;
2362;SDS011;64265;51.664;7.626;2024-01-25T05:37:27;1.90;;;1.20;;
2362;SDS011;64265;51.664;7.626;2024-01-25T05:39:53;2.28;;;1.30;;
2362;SDS011;64265;51.664;7.626;2024-01-25T05:42:20;2.58;;;1.60;;
2362;SDS011;64265;51.664;7.626;2024-01-25T05:44:47;2.13;;;1.30;;
2362;SDS011;64265;51.664;7.626;2024-01-25T05:47:14;1.60;;;1.20;;
2362;SDS011;64265;51.664;7.626;2024-01-25T05:49:42;2.08;;;1.45;;
2362;SDS011;64265;51.664;7.626;2024-01-25T05:52:09;2.45;;;1.40;;
2362;SDS011;64265;51.664;7.626;2024-01-25T05:54:35;2.25;;;1.25;;
2362;SDS011;64265;51.664;7.626;2024-01-25T05:57:02;1.83;;;1.38;;
2362;SDS011;64265;51.664;7.626;2024-01-25T05:59:30;1.60;;;1.40;;
2362;SDS011;64265;51.664;7.626;2024-01-25T06:01:56;2.15;;;1.30;;
2362;SDS011;64265;51.664;7.626;2024-01-25T06:04:23;1.58;;;1.33;;
2362;SDS011;64265;51.664;7.626;2024-01-25T06:06:51;2.08;;;1.48;;
2362;SDS011;64265;51.664;7.626;2024-01-25T06:09:18;2.55;;;1.52;;
2362;SDS011;64265;51.664;7.626;2024-01-25T06:11:45;3.28;;;1.38;;
2362;SDS011;64265;51.664;7.626;2024-01-25T06:14:12;1.42;;;1.10;;
2362;SDS011;64265;51.664;7.626;2024-01-25T06:16:38;1.83;;;1.13;;
2362;SDS011;64265;51.664;7.626;2024-01-25T06:19:05;2.28;;;1.33;;
2362;SDS011;64265;51.664;7.626;2024-01-25T06:21:32;1.95;;;1.25;;
2362;SDS011;64265;51.664;7.626;2024-01-25T06:24:01;1.60;;;1.15;;
2362;SDS011;64265;51.664;7.626;2024-01-25T06:26:28;2.03;;;1.33;;
2362;SDS011;64265;51.664;7.626;2024-01-25T06:28:55;2.45;;;1.50;;
2362;SDS011;64265;51.664;7.626;2024-01-25T06:31:22;2.05;;;1.60;;
2362;SDS011;64265;51.664;7.626;2024-01-25T06:33:49;1.65;;;1.10;;
2362;SDS011;64265;51.664;7.626;2024-01-25T06:36:17;1.65;;;1.55;;
2362;SDS011;64265;51.664;7.626;2024-01-25T06:38:44;2.20;;;2.00;;
2362;SDS011;64265;51.664;7.626;2024-01-25T06:41:12;2.30;;;1.33;;
2362;SDS011;64265;51.664;7.626;2024-01-25T06:43:40;1.73;;;1.17;;
2362;SDS011;64265;51.664;7.626;2024-01-25T06:46:06;1.45;;;1.17;;
2362;SDS011;64265;51.664;7.626;2024-01-25T06:48:34;1.85;;;1.20;;
2362;SDS011;64265;51.664;7.626;2024-01-25T06:51:00;1.75;;;1.40;;
2362;SDS011;64265;51.664;7.626;2024-01-25T06:53:27;1.80;;;1.20;;
2362;SDS011;64265;51.664;7.626;2024-01-25T06:55:55;1.85;;;1.45;;
2362;SDS011;64265;51.664;7.626;2024-01-25T06:58:23;2.30;;;1.33;;
2362;SDS011;64265;51.664;7.626;2024-01-25T07:00:50;1.50;;;1.25;;
2362;SDS011;64265;51.664;7.626;2024-01-25T07:03:17;1.38;;;1.00;;
2362;SDS011;64265;51.664;7.626;2024-01-25T07:05:44;2.92;;;1.52;;
2362;SDS011;64265;51.664;7.626;2024-01-25T07:08:11;1.98;;;1.35;;
2362;SDS011;64265;51.664;7.626;2024-01-25T07:10:38;1.30;;;1.10;;
2362;SDS011;64265;51.664;7.626;2024-01-25T07:13:05;2.40;;;1.20;;
2362;SDS011;64265;51.664;7.626;2024-01-25T07:15:33;1.75;;;1.15;;
2362;SDS011;64265;51.664;7.626;2024-01-25T07:18:00;1.60;;;1.08;;
2362;SDS011;64265;51.664;7.626;2024-01-25T07:20:27;1.70;;;1.13;;
2362;SDS011;64265;51.664;7.626;2024-01-25T07:22:54;2.05;;;1.50;;
2362;SDS011;64265;51.664;7.626;2024-01-25T07:25:20;1.60;;;1.23;;
2362;SDS011;64265;51.664;7.626;2024-01-25T07:27:47;1.65;;;1.17;;
2362;SDS011;64265;51.664;7.626;2024-01-25T07:30:15;1.75;;;1.20;;
2362;SDS011;64265;51.664;7.626;2024-01-25T07:32:44;3.25;;;1.80;;
2362;SDS011;64265;51.664;7.626;2024-01-25T07:35:11;1.80;;;1.15;;
2362;SDS011;64265;51.664;7.626;2024-01-25T07:37:38;1.88;;;1.35;;
2362;SDS011;64265;51.664;7.626;2024-01-25T07:40:05;2.03;;;1.25;;
2362;SDS011;64265;51.664;7.626;2024-01-25T07:42:33;1.98;;;1.50;;
2362;SDS011;64265;51.664;7.626;2024-01-25T07:45:00;2.42;;;1.30;;
2362;SDS011;64265;51.664;7.626;2024-01-25T07:47:27;1.90;;;1.50;;
2362;SDS011;64265;51.664;7.626;2024-01-25T07:49:55;2.60;;;1.50;;
2362;SDS011;64265;51.664;7.626;2024-01-25T07:52:21;1.70;;;1.30;;
2362;SDS011;64265;51.664;7.626;2024-01-25T07:54:48;2.47;;;1.50;;
2362;SDS011;64265;51.664;7.626;2024-01-25T07:57:15;3.53;;;1.20;;
2362;SDS011;64265;51.664;7.626;2024-01-25T07:59:42;3.83;;;1.83;;
2362;SDS011;64265;51.664;7.626;2024-01-25T08:02:08;3.20;;;2.00;;
2362;SDS011;64265;51.664;7.626;2024-01-25T08:04:35;2.97;;;1.48;;
2362;SDS011;64265;51.664;7.626;2024-01-25T08:07:03;22.50;;;5.65;;
2362;SDS011;64265;51.664;7.626;2024-01-25T08:09:30;16.13;;;5.35;;
2362;SDS011;64265;51.664;7.626;2024-01-25T08:11:57;12.45;;;5.57;;
2362;SDS011;64265;51.664;7.626;2024-01-25T08:14:23;17.52;;;6.60;;
2362;SDS011;64265;51.664;7.626;2024-01-25T08:16:50;10.02;;;4.28;;
2362;SDS011;64265;51.664;7.626;2024-01-25T08:19:17;11.88;;;4.82;;
2362;SDS011;64265;51.664;7.626;2024-01-25T08:21:44;11.65;;;4.47;;
2362;SDS011;64265;51.664;7.626;2024-01-25T08:24:13;11.27;;;3.55;;
2362;SDS011;64265;51.664;7.626;2024-01-25T08:26:39;11.48;;;4.25;;
2362;SDS011;64265;51.664;7.626;2024-01-25T08:29:06;14.35;;;3.30;;
2362;SDS011;64265;51.664;7.626;2024-01-25T08:31:34;9.98;;;3.38;;
2362;SDS011;64265;51.664;7.626;2024-01-25T08:34:01;9.13;;;3.53;;
2362;SDS011;64265;51.664;7.626;2024-01-25T08:36:28;7.85;;;2.90;;
2362;SDS011;64265;51.664;7.626;2024-01-25T08:38:54;8.52;;;4.70;;
2362;SDS011;64265;51.664;7.626;2024-01-25T08:41:22;6.78;;;3.10;;
2362;SDS011;64265;51.664;7.626;2024-01-25T08:43:49;7.63;;;3.20;;
2362;SDS011;64265;51.664;7.626;2024-01-25T08:46:16;8.13;;;3.28;;
2362;SDS011;64265;51.664;7.626;2024-01-25T08:48:43;6.45;;;2.47;;
2362;SDS011;64265;51.664;7.626;2024-01-25T08:51:09;7.32;;;3.05;;
2362;SDS011;64265;51.664;7.626;2024-01-25T08:53:36;9.43;;;3.78;;
2362;SDS011;64265;51.664;7.626;2024-01-25T08:56:03;6.30;;;3.00;;
2362;SDS011;64265;51.664;7.626;2024-01-25T08:58:32;17.17;;;6.35;;
2362;SDS011;64265;51.664;7.626;2024-01-25T09:00:59;8.43;;;3.45;;
2362;SDS011;64265;51.664;7.626;2024-01-25T09:03:25;7.53;;;3.35;;
2362;SDS011;64265;51.664;7.626;2024-01-25T09:05:52;7.05;;;3.45;;
2362;SDS011;64265;51.664;7.626;2024-01-25T09:08:19;8.80;;;3.20;;
2362;SDS011;64265;51.664;7.626;2024-01-25T09:10:46;6.72;;;2.95;;
2362;SDS011;64265;51.664;7.626;2024-01-25T09:13:13;8.05;;;3.30;;
2362;SDS011;64265;51.664;7.626;2024-01-25T09:15:41;5.47;;;2.38;;
2362;SDS011;64265;51.664;7.626;2024-01-25T09:18:11;3.00;;;2.15;;
2362;SDS011;64265;51.664;7.626;2024-01-25T09:20:38;6.40;;;2.30;;
2362;SDS011;64265;51.664;7.626;2024-01-25T09:23:05;4.57;;;2.38;;
2362;SDS011;64265;51.664;7.626;2024-01-25T09:25:32;5.35;;;2.75;;
2362;SDS011;64265;51.664;7.626;2024-01-25T09:28:00;6.55;;;2.10;;
2362;SDS011;64265;51.664;7.626;2024-01-25T09:30:29;3.97;;;2.33;;
2362;SDS011;64265;51.664;7.626;2024-01-25T09:32:57;6.68;;;3.00;;
2362;SDS011;64265;51.664;7.626;2024-01-25T09:35:24;4.22;;;2.13;;
2362;SDS011;64265;51.664;7.626;2024-01-25T09:37:51;4.65;;;2.17;;
2362;SDS011;64265;51.664;7.626;2024-01-25T09:40:18;4.65;;;2.78;;
2362;SDS011;64265;51.664;7.626;2024-01-25T09:42:46;5.30;;;2.60;;
2362;SDS011;64265;51.664;7.626;2024-01-25T09:45:13;8.60;;;3.10;;
2362;SDS011;64265;51.664;7.626;2024-01-25T09:47:43;6.85;;;2.72;;
2362;SDS011;64265;51.664;7.626;2024-01-25T09:50:12;7.85;;;3.25;;
2362;SDS011;64265;51.664;7.626;2024-01-25T09:52:39;4.60;;;2.40;;
2362;SDS011;64265;51.664;7.626;2024-01-25T09:55:07;5.82;;;2.88;;
2362;SDS011;64265;51.664;7.626;2024-01-25T09:57:38;8.38;;;2.97;;
2362;SDS011;64265;51.664;7.626;2024-01-25T10:00:07;8.18;;;3.03;;
2362;SDS011;64265;51.664;7.626;2024-01-25T10:02:36;3.78;;;2.00;;
2362;SDS011;64265;51.664;7.626;2024-01-25T10:05:04;11.10;;;2.90;;
2362;SDS011;64265;51.664;7.626;2024-01-25T10:07:36;2.80;;;1.98;;
2362;SDS011;64265;51.664;7.626;2024-01-25T10:10:04;7.55;;;2.80;;
2362;SDS011;64265;51.664;7.626;2024-01-25T10:12:31;5.50;;;2.03;;
2362;SDS011;64265;51.664;7.626;2024-01-25T10:14:58;7.25;;;3.08;;
2362;SDS011;64265;51.664;7.626;2024-01-25T10:17:25;5.35;;;2.50;;
2362;SDS011;64265;51.664;7.626;2024-01-25T10:19:53;5.13;;;2.05;;
2362;SDS011;64265;51.664;7.626;2024-01-25T10:22:20;3.15;;;2.00;;
2362;SDS011;64265;51.664;7.626;2024-01-25T10:24:49;4.57;;;2.17;;
2362;SDS011;64265;51.664;7.626;2024-01-25T10:27:16;7.97;;;2.83;;
2362;SDS011;64265;51.664;7.626;2024-01-25T10:29:43;5.53;;;2.50;;
2362;SDS011;64265;51.664;7.626;2024-01-25T10:32:10;3.25;;;2.10;;
2362;SDS011;64265;51.664;7.626;2024-01-25T10:34:37;17.88;;;5.15;;
2362;SDS011;64265;51.664;7.626;2024-01-25T10:37:05;9.52;;;4.90;;
2362;SDS011;64265;51.664;7.626;2024-01-25T10:39:33;20.63;;;7.65;;
2362;SDS011;64265;51.664;7.626;2024-01-25T10:42:02;21.90;;;8.80;;
2362;SDS011;64265;51.664;7.626;2024-01-25T10:44:29;14.15;;;6.25;;
2362;SDS011;64265;51.664;7.626;2024-01-25T10:46:56;19.45;;;7.25;;
2362;SDS011;64265;51.664;7.626;2024-01-25T10:49:22;22.92;;;7.65;;
2362;SDS011;64265;51.664;7.626;2024-01-25T10:51:50;15.18;;;5.93;;
2362;SDS011;64265;51.664;7.626;2024-01-25T10:54:18;15.77;;;5.45;;
2362;SDS011;64265;51.664;7.626;2024-01-25T10:56:46;14.50;;;5.40;;
2362;SDS011;64265;51.664;7.626;2024-01-25T10:59:15;12.15;;;6.00;;
2362;SDS011;64265;51.664;7.626;2024-01-25T11:01:43;12.23;;;4.47;;
2362;SDS011;64265;51.664;7.626;2024-01-25T11:04:14;9.93;;;5.10;;
2362;SDS011;64265;51.664;7.626;2024-01-25T11:06:43;10.20;;;4.07;;
2362;SDS011;64265;51.664;7.626;2024-01-25T11:09:10;8.27;;;3.95;;
2362;SDS011;64265;51.664;7.626;2024-01-25T11:11:44;13.45;;;4.18;;
2362;SDS011;64265;51.664;7.626;2024-01-25T11:14:13;9.23;;;4.00;;
2362;SDS011;64265;51.664;7.626;2024-01-25T11:16:42;13.00;;;4.13;;
2362;SDS011;64265;51.664;7.626;2024-01-25T11:19:15;14.40;;;4.32;;
2362;SDS011;64265;51.664;7.626;2024-01-25T11:21:43;13.05;;;4.25;;
2362;SDS011;64265;51.664;7.626;2024-01-25T11:24:12;11.43;;;4.18;;
2362;SDS011;64265;51.664;7.626;2024-01-25T11:26:39;8.13;;;3.70;;
2362;SDS011;64265;51.664;7.626;2024-01-25T11:29:06;7.93;;;4.27;;
2362;SDS011;64265;51.664;7.626;2024-01-25T11:31:34;8.18;;;3.45;;
2362;SDS011;64265;51.664;7.626;2024-01-25T11:34:01;8.30;;;3.30;;
2362;SDS011;64265;51.664;7.626;2024-01-25T11:36:28;7.75;;;3.17;;
2362;SDS011;64265;51.664;7.626;2024-01-25T11:38:55;8.13;;;4.00;;
2362;SDS011;64265;51.664;7.626;2024-01-25T11:41:22;9.17;;;4.33;;
2362;SDS011;64265;51.664;7.626;2024-01-25T11:43:49;6.63;;;2.93;;
2362;SDS011;64265;51.664;7.626;2024-01-25T11:46:17;7.17;;;3.60;;
2362;SDS011;64265;51.664;7.626;2024-01-25T11:48:45;7.60;;;2.77;;
2362;SDS011;64265;51.664;7.626;2024-01-25T11:51:12;6.30;;;3.00;;
2362;SDS011;64265;51.664;7.626;2024-01-25T11:53:39;5.10;;;2.70;;
2362;SDS011;64265;51.664;7.626;2024-01-25T11:56:12;10.50;;;3.27;;
2362;SDS011;64265;51.664;7.626;2024-01-25T11:58:42;8.20;;;3.60;;
2362;SDS011;64265;51.664;7.626;2024-01-25T12:01:21;5.60;;;2.90;;
2362;SDS011;64265;51.664;7.626;2024-01-25T12:03:50;5.60;;;2.78;;
2362;SDS011;64265;51.664;7.626;2024-01-25T12:06:17;7.30;;;3.67;;
2362;SDS011;64265;51.664;7.626;2024-01-25T12:08:44;5.37;;;2.60;;
2362;SDS011;64265;51.664;7.626;2024-01-25T12:11:13;5.10;;;3.07;;
2362;SDS011;64265;51.664;7.626;2024-01-25T12:13:40;6.77;;;3.30;;
2362;SDS011;64265;51.664;7.626;2024-01-25T12:16:08;7.40;;;3.40;;
2362;SDS011;64265;51.664;7.626;2024-01-25T12:18:37;8.33;;;2.97;;
2362;SDS011;64265;51.664;7.626;2024-01-25T12:21:06;8.43;;;3.47;;
2362;SDS011;64265;51.664;7.626;2024-01-25T12:23:33;6.47;;;3.33;;
2362;SDS011;64265;51.664;7.626;2024-01-25T12:26:01;4.40;;;2.43;;
2362;SDS011;64265;51.664;7.626;2024-01-25T12:28:29;5.90;;;3.10;;
2362;SDS011;64265;51.664;7.626;2024-01-25T12:30:57;7.00;;;4.00;;
2362;SDS011;64265;51.664;7.626;2024-01-25T12:33:24;6.47;;;3.27;;
2362;SDS011;64265;51.664;7.626;2024-01-25T12:35:51;4.23;;;2.50;;
2362;SDS011;64265;51.664;7.626;2024-01-25T12:38:20;5.33;;;2.40;;
2362;SDS011;64265;51.664;7.626;2024-01-25T12:40:47;5.37;;;2.90;;
2362;SDS011;64265;51.664;7.626;2024-01-25T12:43:15;4.80;;;2.60;;
2362;SDS011;64265;51.664;7.626;2024-01-25T12:45:42;3.90;;;2.20;;
2362;SDS011;64265;51.664;7.626;2024-01-25T12:48:09;4.00;;;2.60;;
2362;SDS011;64265;51.664;7.626;2024-01-25T12:50:36;5.80;;;2.73;;
2362;SDS011;64265;51.664;7.626;2024-01-25T12:53:03;7.33;;;2.73;;
2362;SDS011;64265;51.664;7.626;2024-01-25T12:55:32;5.33;;;2.40;;
2362;SDS011;64265;51.664;7.626;2024-01-25T12:58:00;4.23;;;2.40;;
2362;SDS011;64265;51.664;7.626;2024-01-25T13:00:26;3.30;;;2.10;;
2362;SDS011;64265;51.664;7.626;2024-01-25T13:02:53;4.87;;;2.27;;
2362;SDS011;64265;51.664;7.626;2024-01-25T13:05:21;3.70;;;2.53;;
2362;SDS011;64265;51.664;7.626;2024-01-25T13:07:48;2.80;;;2.20;;
2362;SDS011;64265;51.664;7.626;2024-01-25T13:10:15;3.10;;;1.83;;
2362;SDS011;64265;51.664;7.626;2024-01-25T13:12:43;4.50;;;2.40;;
2362;SDS011;64265;51.664;7.626;2024-01-25T13:15:10;4.93;;;2.30;;
2362;SDS011;64265;51.664;7.626;2024-01-25T13:17:37;4.90;;;2.37;;
2362;SDS011;64265;51.664;7.626;2024-01-25T13:20:04;4.03;;;2.30;;
2362;SDS011;64265;51.664;7.626;2024-01-25T13:22:32;3.70;;;1.70;;
2362;SDS011;64265;51.664;7.626;2024-01-25T13:24:59;3.67;;;1.80;;
2362;SDS011;64265;51.664;7.626;2024-01-25T13:27:26;3.63;;;2.30;;
2362;SDS011;64265;51.664;7.626;2024-01-25T13:29:55;3.13;;;2.17;;
2362;SDS011;64265;51.664;7.626;2024-01-25T13:32:22;4.17;;;2.07;;
2362;SDS011;64265;51.664;7.626;2024-01-25T13:34:49;4.93;;;2.10;;
2362;SDS011;64265;51.664;7.626;2024-01-25T13:37:16;4.13;;;2.10;;
2362;SDS011;64265;51.664;7.626;2024-01-25T13:39:43;4.30;;;2.80;;
2362;SDS011;64265;51.664;7.626;2024-01-25T13:42:09;5.73;;;3.20;;
2362;SDS011;64265;51.664;7.626;2024-01-25T13:44:36;5.27;;;1.87;;
2362;SDS011;64265;51.664;7.626;2024-01-25T13:47:05;6.23;;;1.80;;
2362;SDS011;64265;51.664;7.626;2024-01-25T13:49:33;4.70;;;1.93;;
2362;SDS011;64265;51.664;7.626;2024-01-25T13:52:00;5.07;;;2.53;;
2362;SDS011;64265;51.664;7.626;2024-01-25T13:54:28;3.93;;;2.07;;
2362;SDS011;64265;51.664;7.626;2024-01-25T13:56:55;2.90;;;2.00;;
2362;SDS011;64265;51.664;7.626;2024-01-25T13:59:22;4.00;;;1.93;;
2362;SDS011;64265;51.664;7.626;2024-01-25T14:01:50;3.17;;;1.80;;
2362;SDS011;64265;51.664;7.626;2024-01-25T14:04:18;2.07;;;1.57;;
2362;SDS011;64265;51.664;7.626;2024-01-25T14:06:45;3.13;;;2.10;;
2362;SDS011;64265;51.664;7.626;2024-01-25T14:09:12;4.03;;;2.30;;
2362;SDS011;64265;51.664;7.626;2024-01-25T14:11:38;3.50;;;2.00;;
2362;SDS011;64265;51.664;7.626;2024-01-25T14:14:05;4.00;;;1.83;;
2362;SDS011;64265;51.664;7.626;2024-01-25T14:16:32;4.80;;;1.87;;
2362;SDS011;64265;51.664;7.626;2024-01-25T14:18:59;2.80;;;1.50;;
2362;SDS011;64265;51.664;7.626;2024-01-25T14:21:29;4.97;;;2.17;;
2362;SDS011;64265;51.664;7.626;2024-01-25T14:23:57;2.83;;;2.00;;
2362;SDS011;64265;51.664;7.626;2024-01-25T14:26:23;3.20;;;2.30;;
2362;SDS011;64265;51.664;7.626;2024-01-25T14:28:50;3.60;;;2.27;;
2362;SDS011;64265;51.664;7.626;2024-01-25T14:31:17;1.57;;;1.20;;
2362;SDS011;64265;51.664;7.626;2024-01-25T14:33:43;3.03;;;1.73;;
2362;SDS011;64265;51.664;7.626;2024-01-25T14:36:10;2.93;;;2.13;;
2362;SDS011;64265;51.664;7.626;2024-01-25T14:38:40;3.00;;;2.00;;
2362;SDS011;64265;51.664;7.626;2024-01-25T14:41:07;3.30;;;1.90;;
2362;SDS011;64265;51.664;7.626;2024-01-25T14:43:35;1.93;;;1.40;;
2362;SDS011;64265;51.664;7.626;2024-01-25T14:46:03;1.97;;;1.50;;
2362;SDS011;64265;51.664;7.626;2024-01-25T14:48:30;2.57;;;1.80;;
2362;SDS011;64265;51.664;7.626;2024-01-25T14:50:57;2.77;;;1.50;;
2362;SDS011;64265;51.664;7.626;2024-01-25T14:53:24;4.23;;;1.97;;
2362;SDS011;64265;51.664;7.626;2024-01-25T14:55:52;4.60;;;2.03;;
2362;SDS011;64265;51.664;7.626;2024-01-25T14:58:19;2.90;;;1.37;;
2362;SDS011;64265;51.664;7.626;2024-01-25T15:00:48;2.43;;;1.40;;